Sackville, Canada
Current Conditions -  °F | °C
As of 5:00 PM on Tuesday 21 Oct 2014 (Local Time) from CYQM Reporting Station
Broken Clouds Broken Clouds  
Wind Chill: 50°   Ceiling: 10000
Heat Index: 50°   Visibility: 15mi
Dew Point: 32°   Wind: 7mph
Humidity: 50%   Direction: 220°SW
Pressure: 30.16"   Gusts: NA
Location:  45.9°N, 64.37°W
Report Text: CYQM 212000Z 22006KT 15SM SCT063 BKN100 BKN200 10/00 A3016 RMK SC3AC3CI1 SLP216
Loading
Personal Weather Stations






























Interactive Weather Map
Tropical Storm Tracking
New forecast layout! Learn more

10-Day Weather Forecast

Advertisements
Track Severe Weather on mobile